createdAt,value
2023-04-26T00:02:08.491Z,3.03
2023-04-26T00:04:35.854Z,3.60
2023-04-26T00:07:03.419Z,3.58
2023-04-26T00:09:30.233Z,3.50
2023-04-26T00:11:56.884Z,3.15
2023-04-26T00:14:23.554Z,3.33
2023-04-26T00:16:52.461Z,3.58
2023-04-26T00:19:21.357Z,4.25
2023-04-26T00:21:47.995Z,4.03
2023-04-26T00:24:14.649Z,3.88
2023-04-26T00:26:41.289Z,3.58
2023-04-26T00:29:08.009Z,3.90
2023-04-26T00:31:39.377Z,3.60
2023-04-26T00:34:08.479Z,3.90
2023-04-26T00:36:37.380Z,3.58
2023-04-26T00:39:04.098Z,3.63
2023-04-26T00:41:30.708Z,3.50
2023-04-26T00:43:57.338Z,3.58
2023-04-26T00:46:24.033Z,4.25
2023-04-26T00:48:53.484Z,3.55
2023-04-26T00:51:22.842Z,3.60
2023-04-26T00:53:49.767Z,3.80
2023-04-26T00:56:16.994Z,3.58
2023-04-26T00:58:44.111Z,3.65
2023-04-26T01:01:15.730Z,3.40
2023-04-26T01:03:46.697Z,3.78
2023-04-26T01:06:13.648Z,4.03
2023-04-26T01:08:40.545Z,3.70
2023-04-26T01:11:07.539Z,4.40
2023-04-26T01:13:37.533Z,3.95
2023-04-26T01:16:06.951Z,4.35
2023-04-26T01:18:36.078Z,4.80
2023-04-26T01:21:05.375Z,4.18
2023-04-26T01:23:34.831Z,4.28
2023-04-26T01:26:01.485Z,3.95
2023-04-26T01:28:30.378Z,4.50
2023-04-26T01:31:01.561Z,4.85
2023-04-26T01:33:28.243Z,3.67
2023-04-26T01:35:54.856Z,3.95
2023-04-26T01:38:21.845Z,4.40
2023-04-26T01:40:51.271Z,4.40
2023-04-26T01:43:22.969Z,4.35
2023-04-26T01:45:49.658Z,3.90
2023-04-26T01:48:18.863Z,4.00
2023-04-26T01:50:45.665Z,4.75
2023-04-26T01:53:12.335Z,4.35
2023-04-26T01:55:39.008Z,5.00
2023-04-26T01:58:10.485Z,4.55
2023-04-26T02:00:37.909Z,5.18
2023-04-26T02:03:07.153Z,4.55
2023-04-26T02:05:36.358Z,4.90
2023-04-26T02:08:06.090Z,5.57
2023-04-26T02:10:32.748Z,4.57
2023-04-26T02:12:59.353Z,5.10
2023-04-26T02:15:26.061Z,5.00
2023-04-26T02:17:53.698Z,6.22
2023-04-26T02:20:20.560Z,4.95
2023-04-26T02:22:47.183Z,5.68
2023-04-26T02:25:17.022Z,5.40
2023-04-26T02:27:43.660Z,5.07
2023-04-26T02:30:10.642Z,5.70
2023-04-26T02:32:37.348Z,4.93
2023-04-26T02:35:05.302Z,4.93
2023-04-26T02:37:33.679Z,5.50
2023-04-26T02:40:00.542Z,5.40
2023-04-26T02:42:27.162Z,5.10
2023-04-26T02:44:56.748Z,5.05
2023-04-26T02:47:23.432Z,4.60
2023-04-26T02:49:51.148Z,4.70
2023-04-26T02:52:17.784Z,5.15
2023-04-26T02:54:44.386Z,4.30
2023-04-26T02:57:15.815Z,5.22
2023-04-26T02:59:43.921Z,5.20
2023-04-26T03:02:10.771Z,5.00
2023-04-26T03:04:38.268Z,5.43
2023-04-26T03:07:09.494Z,5.15
2023-04-26T03:09:38.859Z,5.10
2023-04-26T03:12:09.273Z,5.32
2023-04-26T03:14:36.376Z,5.28
2023-04-26T03:17:03.275Z,4.60
2023-04-26T03:19:32.520Z,4.65
2023-04-26T03:22:01.345Z,5.22
2023-04-26T03:24:30.851Z,5.43
2023-04-26T03:26:57.898Z,5.20
2023-04-26T03:29:26.985Z,5.32
2023-04-26T03:31:55.870Z,5.50
2023-04-26T03:34:22.481Z,4.93
2023-04-26T03:36:49.154Z,5.95
2023-04-26T03:39:16.050Z,5.50
2023-04-26T03:41:47.486Z,5.10
2023-04-26T03:44:16.912Z,5.90
2023-04-26T03:46:43.688Z,5.18
2023-04-26T03:49:10.506Z,5.53
2023-04-26T03:51:37.185Z,5.00
2023-04-26T03:54:06.247Z,6.50
2023-04-26T03:56:32.931Z,5.72
2023-04-26T03:58:59.590Z,5.72
2023-04-26T04:01:26.324Z,6.38
2023-04-26T04:03:55.646Z,6.05
2023-04-26T04:06:22.469Z,5.45
2023-04-26T04:08:49.656Z,5.78
2023-04-26T04:11:18.906Z,6.60
2023-04-26T04:13:46.052Z,6.03
2023-04-26T04:16:15.108Z,5.97
2023-04-26T04:18:41.838Z,6.25
2023-04-26T04:21:08.508Z,6.78
2023-04-26T04:23:35.232Z,6.68
2023-04-26T04:26:06.266Z,6.65
2023-04-26T04:28:34.336Z,6.28
2023-04-26T04:31:04.012Z,6.82
2023-04-26T04:33:33.175Z,6.80
2023-04-26T04:36:00.402Z,6.72
2023-04-26T04:38:27.135Z,6.93
2023-04-26T04:40:53.770Z,7.38
2023-04-26T04:43:21.427Z,7.65
2023-04-26T04:45:50.596Z,6.72
2023-04-26T04:48:18.432Z,7.18
2023-04-26T04:50:45.080Z,7.57
2023-04-26T04:53:16.275Z,6.95
2023-04-26T04:55:42.980Z,6.82
2023-04-26T04:58:13.946Z,7.10
2023-04-26T05:00:43.381Z,6.72
2023-04-26T05:03:14.427Z,7.78
2023-04-26T05:05:43.669Z,7.18
2023-04-26T05:08:10.306Z,7.47
2023-04-26T05:10:39.173Z,8.30
2023-04-26T05:13:06.149Z,8.23
2023-04-26T05:15:37.820Z,8.18
2023-04-26T05:18:04.679Z,7.05
2023-04-26T05:20:31.320Z,8.00
2023-04-26T05:22:57.949Z,8.48
2023-04-26T05:25:26.760Z,8.63
2023-04-26T05:27:55.561Z,8.90
2023-04-26T05:30:22.311Z,8.73
2023-04-26T05:32:53.503Z,9.43
2023-04-26T05:35:22.546Z,9.15
2023-04-26T05:37:49.197Z,10.52
2023-04-26T05:40:16.590Z,9.80
2023-04-26T05:42:45.793Z,9.80
2023-04-26T05:45:12.720Z,10.73
2023-04-26T05:47:39.504Z,9.57
2023-04-26T05:50:09.192Z,11.77
2023-04-26T05:52:35.954Z,10.98
2023-04-26T05:55:05.988Z,8.68
2023-04-26T05:57:32.745Z,9.68
2023-04-26T05:59:59.400Z,10.20
2023-04-26T06:02:26.401Z,9.70
2023-04-26T06:04:54.131Z,10.45
2023-04-26T06:07:23.377Z,10.18
2023-04-26T06:09:50.035Z,9.73
2023-04-26T06:12:16.905Z,9.93
2023-04-26T06:14:46.160Z,9.40
2023-04-26T06:17:12.883Z,9.10
2023-04-26T06:19:39.752Z,9.13
2023-04-26T06:22:06.413Z,8.57
2023-04-26T06:24:35.267Z,9.57
2023-04-26T06:27:01.998Z,9.45
2023-04-26T06:29:32.690Z,8.60
2023-04-26T06:31:59.487Z,8.20
2023-04-26T06:34:26.310Z,8.85
2023-04-26T06:36:53.368Z,8.70
2023-04-26T06:39:20.015Z,9.10
2023-04-26T06:41:50.427Z,8.52
2023-04-26T06:44:18.559Z,8.13
2023-04-26T06:46:45.208Z,7.75
2023-04-26T06:49:12.380Z,7.32
2023-04-26T06:51:39.127Z,7.50
2023-04-26T06:54:05.892Z,7.82
2023-04-26T06:56:32.569Z,8.30
2023-04-26T06:59:03.364Z,6.82
2023-04-26T07:01:33.690Z,7.00
2023-04-26T07:04:04.875Z,6.38
2023-04-26T07:06:31.671Z,6.63
2023-04-26T07:09:01.233Z,7.05
2023-04-26T07:11:28.353Z,7.15
2023-04-26T07:13:55.698Z,7.60
2023-04-26T07:16:22.936Z,6.90
2023-04-26T07:18:49.867Z,7.13
2023-04-26T07:21:16.541Z,7.13
2023-04-26T07:23:45.961Z,6.30
2023-04-26T07:26:14.845Z,5.90
2023-04-26T07:28:41.547Z,6.55
2023-04-26T07:31:11.026Z,5.65
2023-04-26T07:33:38.033Z,5.22
2023-04-26T07:36:05.494Z,3.78
2023-04-26T07:38:32.167Z,5.20
2023-04-26T07:40:58.860Z,5.65
2023-04-26T07:43:26.312Z,6.45
2023-04-26T07:45:53.118Z,7.93
2023-04-26T07:48:19.938Z,11.38
2023-04-26T07:50:48.807Z,7.18
2023-04-26T07:53:20.077Z,5.32
2023-04-26T07:55:46.697Z,4.97
2023-04-26T07:58:15.771Z,5.32
2023-04-26T08:00:49.363Z,4.30
2023-04-26T08:03:19.186Z,4.68
2023-04-26T08:05:46.361Z,4.53
2023-04-26T08:08:17.188Z,4.50
2023-04-26T08:10:45.222Z,4.53
2023-04-26T08:13:14.069Z,3.50
2023-04-26T08:15:40.930Z,3.30
2023-04-26T08:18:12.377Z,3.17
2023-04-26T08:20:41.708Z,3.63
2023-04-26T08:23:08.357Z,3.67
2023-04-26T08:25:35.044Z,3.70
2023-04-26T08:28:02.331Z,3.58
2023-04-26T08:30:29.559Z,3.38
2023-04-26T08:32:58.519Z,3.17
2023-04-26T08:35:25.293Z,2.25
2023-04-26T08:37:51.936Z,2.35
2023-04-26T08:40:24.665Z,2.38
2023-04-26T08:42:54.108Z,3.08
2023-04-26T08:45:21.656Z,2.35
2023-04-26T08:47:52.733Z,2.92
2023-04-26T08:50:23.743Z,2.75
2023-04-26T08:52:52.309Z,2.80
2023-04-26T08:55:20.202Z,3.30
2023-04-26T08:57:48.649Z,2.50
2023-04-26T09:00:19.775Z,2.97
2023-04-26T09:02:53.948Z,3.28
2023-04-26T09:05:24.658Z,2.60
2023-04-26T09:08:03.570Z,2.80
2023-04-26T09:10:32.110Z,2.95
2023-04-26T09:13:01.281Z,3.05
2023-04-26T09:15:30.481Z,3.10
2023-04-26T09:18:18.812Z,3.45
2023-04-26T09:20:47.354Z,3.85
2023-04-26T09:23:16.088Z,3.55
2023-04-26T09:25:45.449Z,4.38
2023-04-26T09:28:23.331Z,3.30
2023-04-26T09:30:50.041Z,3.58
2023-04-26T09:33:19.476Z,3.22
2023-04-26T09:35:48.414Z,3.67
2023-04-26T09:38:17.362Z,3.70
2023-04-26T09:40:50.571Z,3.67
2023-04-26T09:43:19.007Z,3.60
2023-04-26T09:45:53.392Z,3.65
2023-04-26T09:48:31.342Z,3.13
2023-04-26T09:51:08.396Z,3.25
2023-04-26T09:53:52.091Z,3.33
2023-04-26T09:56:20.751Z,3.10
2023-04-26T09:58:47.342Z,3.40
2023-04-26T10:01:16.155Z,2.70
2023-04-26T10:03:44.152Z,2.88
2023-04-26T10:06:13.551Z,3.45
2023-04-26T10:08:40.317Z,3.38
2023-04-26T10:11:13.877Z,2.70
2023-04-26T10:13:41.884Z,2.45
2023-04-26T10:16:10.049Z,2.08
2023-04-26T10:18:39.498Z,2.83
2023-04-26T10:21:14.061Z,2.58
2023-04-26T10:23:41.549Z,2.90
2023-04-26T10:26:48.650Z,2.75
2023-04-26T10:29:18.350Z,2.58
2023-04-26T10:32:05.905Z,2.88
2023-04-26T10:34:37.082Z,2.70
2023-04-26T10:37:18.106Z,2.47
2023-04-26T10:39:48.575Z,2.40
2023-04-26T10:42:30.302Z,3.00
2023-04-26T10:44:59.970Z,2.45
2023-04-26T10:47:33.887Z,2.63
2023-04-26T10:50:11.192Z,3.00
2023-04-26T10:53:01.909Z,3.50
2023-04-26T10:55:44.460Z,2.80
2023-04-26T10:58:41.030Z,3.25
2023-04-26T11:01:17.622Z,3.10
2023-04-26T11:03:59.168Z,3.35
2023-04-26T11:06:29.672Z,3.03
2023-04-26T11:08:56.496Z,2.85
2023-04-26T11:11:26.992Z,3.00
2023-04-26T11:13:56.336Z,2.70
2023-04-26T11:16:31.522Z,3.20
2023-04-26T11:18:58.344Z,2.75
2023-04-26T11:21:26.852Z,2.97
2023-04-26T11:23:54.712Z,2.97
2023-04-26T11:26:21.931Z,3.45
2023-04-26T11:28:49.456Z,3.30
2023-04-26T11:31:21.288Z,3.10
2023-04-26T11:33:50.927Z,2.97
2023-04-26T11:36:19.550Z,2.80
2023-04-26T11:38:46.281Z,2.75
2023-04-26T11:41:15.227Z,3.10
2023-04-26T11:43:46.688Z,2.63
2023-04-26T11:46:16.715Z,2.95
2023-04-26T11:48:45.789Z,3.10
2023-04-26T11:51:12.480Z,2.70
2023-04-26T11:53:43.217Z,3.35
2023-04-26T11:56:21.879Z,2.45
2023-04-26T11:58:53.183Z,2.90
2023-04-26T12:01:24.332Z,2.70
2023-04-26T12:04:00.847Z,2.63
2023-04-26T12:06:30.956Z,2.30
2023-04-26T12:09:05.386Z,2.80
2023-04-26T12:11:32.180Z,2.92
2023-04-26T12:14:01.681Z,2.17
2023-04-26T12:16:28.470Z,2.50
2023-04-26T12:18:57.068Z,2.15
2023-04-26T12:21:29.870Z,2.20
2023-04-26T12:23:59.707Z,1.80
2023-04-26T12:26:44.998Z,1.83
2023-04-26T12:29:11.699Z,2.13
2023-04-26T12:31:38.540Z,2.20
2023-04-26T12:34:05.355Z,2.60
2023-04-26T12:36:34.208Z,2.33
2023-04-26T12:39:05.232Z,2.30
2023-04-26T12:41:34.233Z,2.65
2023-04-26T12:44:03.393Z,2.63
2023-04-26T12:46:32.636Z,2.55
2023-04-26T12:49:02.040Z,2.00
2023-04-26T12:51:29.101Z,2.42
2023-04-26T12:53:58.615Z,2.42
2023-04-26T12:56:27.989Z,2.40
2023-04-26T12:58:57.266Z,2.35
2023-04-26T13:01:26.805Z,2.22
2023-04-26T13:03:55.618Z,2.58
2023-04-26T13:06:24.531Z,2.50
2023-04-26T13:08:51.239Z,2.40
2023-04-26T13:11:20.403Z,1.98
2023-04-26T13:13:47.143Z,1.63
2023-04-26T13:16:13.889Z,2.25
2023-04-26T13:18:43.033Z,2.35
2023-04-26T13:21:09.702Z,1.75
2023-04-26T13:23:36.461Z,1.92
2023-04-26T13:26:03.122Z,2.42
2023-04-26T13:28:32.380Z,2.10
2023-04-26T13:30:59.561Z,2.35
2023-04-26T13:33:26.337Z,1.73
2023-04-26T13:35:55.264Z,2.05
2023-04-26T13:38:24.970Z,2.20
2023-04-26T13:40:54.732Z,2.10
2023-04-26T13:43:21.453Z,2.08
2023-04-26T13:45:48.133Z,1.90
2023-04-26T13:48:15.024Z,1.77
2023-04-26T13:50:41.948Z,1.90
2023-04-26T13:53:08.591Z,2.00
2023-04-26T13:55:35.241Z,2.40
2023-04-26T13:58:04.410Z,2.28
2023-04-26T14:00:31.148Z,1.90
2023-04-26T14:03:00.162Z,2.35
2023-04-26T14:05:29.473Z,2.22
2023-04-26T14:07:58.727Z,2.53
2023-04-26T14:10:26.072Z,2.15
2023-04-26T14:12:52.765Z,2.40
2023-04-26T14:15:19.419Z,2.67
2023-04-26T14:17:46.921Z,2.70
2023-04-26T14:20:16.008Z,2.30
2023-04-26T14:22:42.699Z,2.50
2023-04-26T14:25:12.173Z,2.40
2023-04-26T14:27:39.560Z,2.47
2023-04-26T14:30:09.055Z,2.55
2023-04-26T14:32:35.860Z,2.60
2023-04-26T14:35:02.540Z,2.75
2023-04-26T14:37:31.781Z,2.65
2023-04-26T14:40:04.085Z,2.97
2023-04-26T14:42:32.989Z,2.50
2023-04-26T14:45:02.026Z,2.45
2023-04-26T14:47:29.336Z,3.10
2023-04-26T14:49:57.169Z,2.70
2023-04-26T14:52:26.952Z,3.30
2023-04-26T14:54:53.679Z,3.10
2023-04-26T14:57:22.723Z,2.97
2023-04-26T14:59:49.397Z,2.90
2023-04-26T15:02:18.318Z,3.13
2023-04-26T15:04:45.401Z,2.90
2023-04-26T15:07:30.798Z,2.90
2023-04-26T15:10:00.636Z,2.97
2023-04-26T15:12:29.405Z,3.28
2023-04-26T15:14:56.173Z,3.22
2023-04-26T15:17:22.986Z,3.38
2023-04-26T15:19:54.414Z,3.13
2023-04-26T15:22:21.059Z,2.65
2023-04-26T15:24:49.515Z,2.90
2023-04-26T15:27:18.566Z,2.80
2023-04-26T15:29:47.532Z,2.83
2023-04-26T15:32:16.364Z,2.70
2023-04-26T15:34:47.861Z,2.75
2023-04-26T15:37:14.505Z,2.90
2023-04-26T15:39:43.580Z,2.50
2023-04-26T15:42:11.141Z,2.40
2023-04-26T15:44:37.799Z,2.08
2023-04-26T15:47:04.616Z,2.67
2023-04-26T15:49:31.486Z,2.40
2023-04-26T15:51:58.262Z,2.55
2023-04-26T15:54:28.341Z,2.67
2023-04-26T15:56:55.304Z,2.40
2023-04-26T15:59:24.445Z,2.55
2023-04-26T16:01:51.233Z,2.53
2023-04-26T16:04:18.216Z,2.85
2023-04-26T16:06:44.936Z,2.78
2023-04-26T16:09:24.668Z,2.72
2023-04-26T16:11:54.486Z,3.20
2023-04-26T16:14:21.153Z,2.83
2023-04-26T16:16:50.432Z,2.60
2023-04-26T16:19:17.375Z,2.55
2023-04-26T16:21:46.952Z,2.78
2023-04-26T16:24:13.724Z,2.78
2023-04-26T16:26:42.900Z,4.82
2023-04-26T16:29:09.623Z,3.22
2023-04-26T16:31:38.845Z,3.60
2023-04-26T16:34:05.631Z,3.00
2023-04-26T16:36:34.933Z,2.70
2023-04-26T16:39:08.650Z,3.40
2023-04-26T16:41:37.446Z,2.97
2023-04-26T16:44:06.248Z,3.40
2023-04-26T16:46:33.064Z,3.30
2023-04-26T16:48:59.785Z,3.25
2023-04-26T16:51:28.886Z,3.40
2023-04-26T16:53:57.849Z,3.33
2023-04-26T16:56:29.183Z,3.30
2023-04-26T16:59:03.025Z,3.08
2023-04-26T17:01:29.675Z,3.30
2023-04-26T17:03:56.997Z,3.47
2023-04-26T17:06:24.426Z,3.58
2023-04-26T17:08:51.107Z,3.70
2023-04-26T17:11:20.211Z,3.90
2023-04-26T17:13:49.187Z,3.50
2023-04-26T17:16:15.967Z,3.58
2023-04-26T17:18:42.628Z,3.83
2023-04-26T17:21:09.413Z,3.47
2023-04-26T17:23:38.514Z,3.47
2023-04-26T17:26:05.495Z,3.70
2023-04-26T17:28:34.404Z,4.20
2023-04-26T17:31:03.698Z,3.60
2023-04-26T17:33:31.308Z,3.85
2023-04-26T17:36:00.850Z,3.53
2023-04-26T17:38:29.774Z,3.00
2023-04-26T17:41:01.709Z,3.20
2023-04-26T17:43:28.386Z,3.88
2023-04-26T17:45:58.081Z,2.90
2023-04-26T17:48:24.875Z,3.17
2023-04-26T17:50:52.794Z,3.30
2023-04-26T17:53:24.200Z,3.45
2023-04-26T17:55:52.926Z,3.42
2023-04-26T17:58:21.984Z,3.47
2023-04-26T18:00:49.445Z,3.63
2023-04-26T18:03:20.021Z,3.45
2023-04-26T18:05:49.318Z,3.60
2023-04-26T18:08:18.223Z,3.38
2023-04-26T18:10:46.130Z,3.33
2023-04-26T18:13:14.131Z,3.53
2023-04-26T18:15:40.796Z,3.30
2023-04-26T18:18:08.164Z,3.65
2023-04-26T18:20:36.755Z,3.30
2023-04-26T18:23:03.897Z,3.42
2023-04-26T18:25:36.237Z,3.90
2023-04-26T18:28:02.872Z,3.55
2023-04-26T18:30:34.079Z,3.90
2023-04-26T18:33:03.712Z,3.45
2023-04-26T18:35:31.018Z,3.80
2023-04-26T18:37:59.881Z,3.15
2023-04-26T18:40:26.522Z,3.40
2023-04-26T18:42:56.299Z,3.63
2023-04-26T18:45:22.908Z,3.40
2023-04-26T18:47:49.658Z,3.70
2023-04-26T18:50:18.791Z,3.72
2023-04-26T18:52:45.467Z,3.38
2023-04-26T18:55:14.697Z,4.25
2023-04-26T18:57:41.334Z,3.80
2023-04-26T19:00:08.659Z,3.40
2023-04-26T19:02:39.850Z,3.85
2023-04-26T19:05:10.654Z,3.50
2023-04-26T19:07:40.308Z,3.60
2023-04-26T19:10:09.698Z,3.47
2023-04-26T19:12:38.912Z,3.90
2023-04-26T19:15:06.481Z,4.00
2023-04-26T19:17:33.350Z,3.65
2023-04-26T19:20:09.026Z,4.00
2023-04-26T19:25:05.311Z,4.07
2023-04-26T19:27:34.463Z,3.88
2023-04-26T19:30:01.706Z,3.60
2023-04-26T19:32:32.796Z,3.88
2023-04-26T19:34:59.578Z,3.75
2023-04-26T19:37:28.390Z,3.65
2023-04-26T19:39:57.181Z,3.10
2023-04-26T19:42:23.830Z,3.17
2023-04-26T19:44:53.436Z,4.13
2023-04-26T19:47:20.181Z,4.10
2023-04-26T19:49:47.845Z,4.10
2023-04-26T19:52:19.216Z,4.00
2023-04-26T19:54:45.983Z,4.05
2023-04-26T19:57:12.614Z,3.80
2023-04-26T19:59:39.248Z,3.50
2023-04-26T20:02:08.734Z,3.58
2023-04-26T20:04:37.532Z,3.95
2023-04-26T20:07:07.239Z,3.33
2023-04-26T20:09:34.608Z,3.83
2023-04-26T20:12:03.525Z,3.80
2023-04-26T20:14:36.504Z,3.85
2023-04-26T20:17:05.838Z,4.20
2023-04-26T20:19:32.534Z,3.65
2023-04-26T20:22:01.740Z,4.10
2023-04-26T20:24:30.740Z,3.97
2023-04-26T20:26:57.461Z,4.13
2023-04-26T20:29:26.339Z,3.85
2023-04-26T20:31:53.094Z,3.72
2023-04-26T20:34:22.094Z,4.00
2023-04-26T20:36:48.813Z,3.90
2023-04-26T20:39:18.822Z,4.30
2023-04-26T20:41:51.692Z,3.70
2023-04-26T20:44:21.300Z,3.65
2023-04-26T20:46:47.985Z,4.80
2023-04-26T20:49:17.156Z,4.60
2023-04-26T20:51:46.091Z,4.63
2023-04-26T20:54:12.706Z,4.78
2023-04-26T20:56:39.354Z,4.35
2023-04-26T20:59:08.414Z,4.20
2023-04-26T21:01:39.652Z,4.65
2023-04-26T21:04:08.733Z,4.53
2023-04-26T21:06:35.465Z,4.40
2023-04-26T21:09:02.097Z,3.90
2023-04-26T21:11:30.931Z,4.20
2023-04-26T21:13:58.334Z,4.10
2023-04-26T21:16:25.110Z,3.38
2023-04-26T21:18:54.012Z,3.65
2023-04-26T21:21:20.750Z,4.00
2023-04-26T21:23:47.421Z,3.80
2023-04-26T21:26:14.070Z,4.15
2023-04-26T21:28:40.854Z,3.70
2023-04-26T21:31:14.807Z,4.25
2023-04-26T21:33:41.446Z,4.00
2023-04-26T21:36:08.356Z,3.92
2023-04-26T21:38:35.041Z,3.58
2023-04-26T21:41:01.750Z,4.10
2023-04-26T21:43:28.449Z,4.20
2023-04-26T21:46:03.312Z,4.25
2023-04-26T21:48:30.027Z,4.72
2023-04-26T21:50:58.799Z,4.43
2023-04-26T21:53:29.933Z,4.57
2023-04-26T21:55:56.644Z,3.97
2023-04-26T21:58:23.536Z,4.35
2023-04-26T22:00:50.738Z,4.40
2023-04-26T22:03:17.891Z,3.78
2023-04-26T22:05:44.781Z,4.40
2023-04-26T22:08:11.427Z,4.00
2023-04-26T22:10:41.768Z,4.15
2023-04-26T22:13:10.613Z,4.50
2023-04-26T22:15:41.995Z,4.25
2023-04-26T22:18:10.940Z,4.10
2023-04-26T22:20:37.567Z,4.38
2023-04-26T22:23:06.911Z,4.75
2023-04-26T22:25:35.954Z,4.07
2023-04-26T22:28:02.681Z,3.95
2023-04-26T22:30:31.699Z,4.70
2023-04-26T22:32:59.680Z,4.45
2023-04-26T22:35:27.949Z,4.22
2023-04-26T22:37:55.388Z,4.57
2023-04-26T22:40:24.572Z,4.72
2023-04-26T22:42:54.438Z,3.97
2023-04-26T22:45:21.347Z,4.20
2023-04-26T22:47:50.911Z,4.55
2023-04-26T22:50:20.046Z,4.40
2023-04-26T22:52:47.160Z,4.18
2023-04-26T22:55:16.188Z,4.88
2023-04-26T22:57:45.032Z,4.82
2023-04-26T23:00:14.626Z,4.43
2023-04-26T23:02:46.419Z,4.82
2023-04-26T23:05:13.284Z,5.00
2023-04-26T23:07:40.381Z,4.70
2023-04-26T23:10:12.134Z,4.82
2023-04-26T23:12:41.213Z,4.72
2023-04-26T23:15:08.394Z,5.03
2023-04-26T23:17:41.522Z,4.35
2023-04-26T23:20:14.316Z,4.57
2023-04-26T23:22:44.395Z,4.85
2023-04-26T23:25:11.102Z,4.60
2023-04-26T23:27:38.221Z,4.65
2023-04-26T23:30:05.545Z,5.40
2023-04-26T23:32:32.231Z,5.05
2023-04-26T23:34:58.986Z,4.60
2023-04-26T23:37:25.628Z,4.72
2023-04-26T23:39:52.309Z,5.35
2023-04-26T23:42:21.449Z,4.82
2023-04-26T23:44:52.868Z,6.03
2023-04-26T23:47:24.142Z,5.25
2023-04-26T23:49:53.265Z,5.35
2023-04-26T23:52:19.928Z,4.70
2023-04-26T23:54:46.616Z,5.47
2023-04-26T23:57:13.226Z,4.93
2023-04-26T23:59:39.837Z,5.15
